createdAt,value
2017-06-09T00:00:17.032Z,23.76
2017-06-09T00:00:45.137Z,23.74
2017-06-09T00:01:13.621Z,23.76
2017-06-09T00:01:41.835Z,23.73
2017-06-09T00:02:10.007Z,23.76
2017-06-09T00:02:38.202Z,23.76
2017-06-09T00:03:06.304Z,23.84
2017-06-09T00:03:34.531Z,23.69
2017-06-09T00:04:02.715Z,23.76
2017-06-09T00:04:30.895Z,23.71
2017-06-09T00:04:58.850Z,23.74
2017-06-09T00:05:26.926Z,23.76
2017-06-09T00:05:55.029Z,23.77
2017-06-09T00:06:23.141Z,23.79
2017-06-09T00:06:51.120Z,23.81
2017-06-09T00:07:19.206Z,23.76
2017-06-09T00:07:47.198Z,23.73
2017-06-09T00:08:15.360Z,23.73
2017-06-09T00:08:43.538Z,23.76
2017-06-09T00:09:11.749Z,23.74
2017-06-09T00:09:39.913Z,23.74
2017-06-09T00:10:08.001Z,23.7
2017-06-09T00:10:36.169Z,23.73
2017-06-09T00:11:04.349Z,23.7
2017-06-09T00:11:32.528Z,23.67
2017-06-09T00:12:00.711Z,23.71
2017-06-09T00:12:28.876Z,23.71
2017-06-09T00:12:57.053Z,23.7
2017-06-09T00:13:25.143Z,23.73
2017-06-09T00:13:53.312Z,23.69
2017-06-09T00:14:21.398Z,23.69
2017-06-09T00:14:49.547Z,23.62
2017-06-09T00:15:17.696Z,23.62
2017-06-09T00:15:45.761Z,23.64
2017-06-09T00:16:13.842Z,23.71
2017-06-09T00:16:42.012Z,23.74
2017-06-09T00:17:10.097Z,23.66
2017-06-09T00:17:38.091Z,23.73
2017-06-09T00:18:06.197Z,23.74
2017-06-09T00:18:34.330Z,23.73
2017-06-09T00:19:02.537Z,23.76
2017-06-09T00:19:30.643Z,23.79
2017-06-09T00:19:58.735Z,23.76
2017-06-09T00:20:26.882Z,23.73
2017-06-09T00:20:54.958Z,23.74
2017-06-09T00:21:23.023Z,23.73
2017-06-09T00:21:51.217Z,23.77
2017-06-09T00:22:19.311Z,23.73
2017-06-09T00:22:47.495Z,23.71
2017-06-09T00:23:15.658Z,23.82
2017-06-09T00:23:43.735Z,23.77
2017-06-09T00:24:11.929Z,23.82
2017-06-09T00:24:40.136Z,23.82
2017-06-09T00:25:08.237Z,23.73
2017-06-09T00:25:36.335Z,23.81
2017-06-09T00:26:04.495Z,23.73
2017-06-09T00:26:32.626Z,23.86
2017-06-09T00:27:00.807Z,23.84
2017-06-09T00:27:28.926Z,23.81
2017-06-09T00:27:57.023Z,23.85
2017-06-09T00:28:25.130Z,23.84
2017-06-09T00:28:53.119Z,23.86
2017-06-09T00:29:21.290Z,23.85
2017-06-09T00:29:49.331Z,23.95
2017-06-09T00:30:17.548Z,23.95
2017-06-09T00:30:45.507Z,23.91
2017-06-09T00:31:13.598Z,23.92
2017-06-09T00:31:41.768Z,23.95
2017-06-09T00:32:09.894Z,23.96
2017-06-09T00:32:38.069Z,24.01
2017-06-09T00:33:06.143Z,24
2017-06-09T00:33:34.211Z,24.03
2017-06-09T00:34:02.381Z,24.1
2017-06-09T00:34:30.489Z,24.03
2017-06-09T00:34:58.693Z,24.03
2017-06-09T00:35:26.685Z,24.06
2017-06-09T00:35:54.854Z,24.07
2017-06-09T00:36:37.635Z,24.18
2017-06-09T00:37:05.800Z,24.11
2017-06-09T00:37:33.797Z,24.16
2017-06-09T00:38:01.971Z,24.16
2017-06-09T00:38:30.153Z,24.16
2017-06-09T00:38:58.332Z,24.13
2017-06-09T00:39:26.480Z,24.09
2017-06-09T00:39:54.542Z,24.07
2017-06-09T00:40:22.707Z,24.21
2017-06-09T00:40:50.908Z,24.18
2017-06-09T00:41:19.084Z,24.16
2017-06-09T00:41:47.271Z,24.19
2017-06-09T00:42:15.349Z,24.19
2017-06-09T00:42:43.525Z,24.19
2017-06-09T00:43:11.688Z,24.16
2017-06-09T00:43:39.775Z,24.19
2017-06-09T00:44:07.932Z,24.22
2017-06-09T00:44:36.100Z,24.24
2017-06-09T00:45:04.259Z,24.16
2017-06-09T00:45:32.337Z,24.18
2017-06-09T00:46:00.520Z,24.22
2017-06-09T00:46:28.692Z,24.22
2017-06-09T00:46:56.754Z,24.16
2017-06-09T00:47:24.873Z,24.16
2017-06-09T00:47:52.944Z,24.13
2017-06-09T00:48:21.016Z,24.14
2017-06-09T00:48:49.206Z,24.14
2017-06-09T00:49:17.377Z,24.07
2017-06-09T00:49:45.448Z,24.18
2017-06-09T00:50:13.504Z,24.14
2017-06-09T00:50:41.723Z,24.18
2017-06-09T00:51:09.806Z,24.21
2017-06-09T00:51:37.970Z,24.06
2017-06-09T00:52:06.139Z,24.14
2017-06-09T00:52:34.220Z,24.14
2017-06-09T00:53:02.457Z,24.11
2017-06-09T00:53:30.453Z,24.09
2017-06-09T00:53:58.421Z,24.06
2017-06-09T00:54:26.597Z,24.09
2017-06-09T00:54:54.724Z,24.03
2017-06-09T00:55:22.924Z,24.01
2017-06-09T00:55:50.920Z,24.07
2017-06-09T00:56:18.986Z,24.04
2017-06-09T00:56:47.157Z,24.06
2017-06-09T00:57:15.323Z,24.06
2017-06-09T00:57:43.405Z,23.95
2017-06-09T00:58:11.568Z,24.01
2017-06-09T00:58:39.645Z,23.99
2017-06-09T00:59:07.834Z,23.95
2017-06-09T00:59:36.013Z,23.91
2017-06-09T01:00:04.415Z,24.01
2017-06-09T01:00:32.580Z,24
2017-06-09T01:01:00.555Z,23.95
2017-06-09T01:01:28.635Z,24
2017-06-09T01:01:56.820Z,24.03
2017-06-09T01:02:24.913Z,24.06
2017-06-09T01:02:52.991Z,24
2017-06-09T01:03:21.164Z,24.01
2017-06-09T01:03:49.342Z,24.01
2017-06-09T01:04:17.351Z,24.01
2017-06-09T01:04:45.528Z,24.07
2017-06-09T01:05:13.682Z,24.03
2017-06-09T01:05:41.835Z,24.06
2017-06-09T01:06:09.979Z,24.09
2017-06-09T01:06:38.151Z,24.06
2017-06-09T01:07:06.332Z,24.06
2017-06-09T01:07:34.265Z,24.1
2017-06-09T01:08:02.443Z,24.07
2017-06-09T01:08:30.449Z,24.09
2017-06-09T01:08:58.601Z,24.03
2017-06-09T01:09:26.775Z,24.06
2017-06-09T01:09:54.948Z,24.06
2017-06-09T01:10:23.151Z,24.06
2017-06-09T01:10:51.307Z,24.06
2017-06-09T01:11:19.482Z,24.03
2017-06-09T01:11:47.588Z,24.07
2017-06-09T01:12:15.657Z,24.04
2017-06-09T01:12:43.804Z,24.06
2017-06-09T01:13:11.983Z,24.09
2017-06-09T01:13:40.072Z,24.04
2017-06-09T01:14:08.238Z,24.06
2017-06-09T01:14:36.361Z,24.11
2017-06-09T01:15:04.478Z,24.1
2017-06-09T01:15:32.644Z,24.13
2017-06-09T01:16:00.823Z,24.03
2017-06-09T01:16:28.923Z,24.1
2017-06-09T01:16:57.130Z,24.06
2017-06-09T01:17:25.112Z,24.09
2017-06-09T01:17:53.296Z,24.11
2017-06-09T01:18:21.496Z,24.09
2017-06-09T01:18:49.674Z,24.09
2017-06-09T01:19:17.773Z,24.1
2017-06-09T01:19:45.857Z,24.07
2017-06-09T01:20:13.940Z,24.06
2017-06-09T01:20:42.109Z,24.09
2017-06-09T01:21:10.271Z,24.09
2017-06-09T01:21:38.346Z,24.07
2017-06-09T01:22:06.356Z,24.03
2017-06-09T01:22:34.459Z,24.09
2017-06-09T01:23:02.607Z,24.04
2017-06-09T01:23:30.664Z,24.06
2017-06-09T01:23:58.758Z,24.06
2017-06-09T01:24:26.927Z,24.03
2017-06-09T01:24:54.969Z,24.09
2017-06-09T01:25:23.146Z,24
2017-06-09T01:25:51.323Z,24.03
2017-06-09T01:26:19.489Z,24.06
2017-06-09T01:26:47.628Z,24.07
2017-06-09T01:27:15.713Z,24.04
2017-06-09T01:27:43.682Z,24.13
2017-06-09T01:28:11.667Z,24.14
2017-06-09T01:28:39.673Z,24.06
2017-06-09T01:29:07.852Z,24.1
2017-06-09T01:29:35.937Z,24.07
2017-06-09T01:30:04.131Z,24.09
2017-06-09T01:30:32.307Z,24.06
2017-06-09T01:31:00.483Z,24.1
2017-06-09T01:31:28.547Z,24.1
2017-06-09T01:31:56.717Z,24.11
2017-06-09T01:32:24.901Z,24.09
2017-06-09T01:32:52.895Z,24.06
2017-06-09T01:33:20.992Z,24.06
2017-06-09T01:33:49.068Z,24.09
2017-06-09T01:34:17.276Z,24.01
2017-06-09T01:34:45.343Z,24.06
2017-06-09T01:35:13.502Z,24.06
2017-06-09T01:35:41.597Z,24.04
2017-06-09T01:36:09.763Z,24.09
2017-06-09T01:36:37.951Z,24.04
2017-06-09T01:37:06.128Z,24.06
2017-06-09T01:37:34.097Z,24.09
2017-06-09T01:38:02.262Z,24.07
2017-06-09T01:38:30.328Z,24.06
2017-06-09T01:38:58.410Z,24.1
2017-06-09T01:39:26.499Z,24.03
2017-06-09T01:39:54.562Z,24.09
2017-06-09T01:40:22.734Z,24.04
2017-06-09T01:40:50.931Z,24.04
2017-06-09T01:41:19.109Z,24
2017-06-09T01:41:47.168Z,24.03
2017-06-09T01:42:15.141Z,23.99
2017-06-09T01:42:43.322Z,24.06
2017-06-09T01:43:11.502Z,24.03
2017-06-09T01:43:39.690Z,23.99
2017-06-09T01:44:07.749Z,24.04
2017-06-09T01:44:35.941Z,24.01
2017-06-09T01:45:04.126Z,24
2017-06-09T01:45:32.125Z,24.04
2017-06-09T01:46:00.332Z,24
2017-06-09T01:46:28.490Z,23.94
2017-06-09T01:46:56.667Z,23.94
2017-06-09T01:47:24.646Z,23.92
2017-06-09T01:47:52.825Z,23.91
2017-06-09T01:48:20.987Z,23.92
2017-06-09T01:48:49.196Z,23.85
2017-06-09T01:49:17.365Z,23.92
2017-06-09T01:49:45.350Z,23.88
2017-06-09T01:50:13.422Z,23.94
2017-06-09T01:50:41.603Z,23.95
2017-06-09T01:51:09.693Z,23.86
2017-06-09T01:51:37.861Z,23.79
2017-06-09T01:52:06.045Z,23.91
2017-06-09T01:52:34.149Z,23.84
2017-06-09T01:53:02.221Z,23.81
2017-06-09T01:53:30.280Z,23.84
2017-06-09T01:53:58.444Z,23.81
2017-06-09T01:54:26.619Z,23.77
2017-06-09T01:54:54.777Z,23.77
2017-06-09T01:55:22.965Z,23.86
2017-06-09T01:55:51.145Z,23.77
2017-06-09T01:56:19.219Z,23.81
2017-06-09T01:56:47.284Z,23.84
2017-06-09T01:57:15.435Z,23.82
2017-06-09T01:57:43.598Z,23.77
2017-06-09T01:58:11.674Z,23.82
2017-06-09T01:58:39.832Z,23.81
2017-06-09T01:59:07.807Z,23.85
2017-06-09T01:59:35.887Z,23.73
2017-06-09T02:00:04.036Z,23.76
2017-06-09T02:00:32.214Z,23.74
2017-06-09T02:01:00.399Z,23.63
2017-06-09T02:01:28.560Z,23.59
2017-06-09T02:01:56.702Z,23.63
2017-06-09T02:02:24.766Z,23.66
2017-06-09T02:02:52.946Z,23.66
2017-06-09T02:03:20.913Z,23.59
2017-06-09T02:03:48.996Z,23.62
2017-06-09T02:04:17.171Z,23.55
2017-06-09T02:04:45.322Z,23.59
2017-06-09T02:05:13.494Z,23.55
2017-06-09T02:05:41.666Z,23.59
2017-06-09T02:06:09.837Z,23.55
2017-06-09T02:06:37.909Z,23.54
2017-06-09T02:07:06.086Z,23.55
2017-06-09T02:07:34.259Z,23.58
2017-06-09T02:08:02.305Z,23.54
2017-06-09T02:08:30.466Z,23.54
2017-06-09T02:08:58.642Z,23.55
2017-06-09T02:09:26.727Z,23.4
2017-06-09T02:09:54.894Z,23.44
2017-06-09T02:10:22.962Z,23.44
2017-06-09T02:10:51.131Z,23.39
2017-06-09T02:11:19.219Z,23.42
2017-06-09T02:11:47.410Z,23.4
2017-06-09T02:12:15.460Z,23.34
2017-06-09T02:12:43.629Z,23.42
2017-06-09T02:13:11.812Z,23.4
2017-06-09T02:13:39.970Z,23.4
2017-06-09T02:14:08.050Z,23.33
2017-06-09T02:14:36.120Z,23.28
2017-06-09T02:15:04.277Z,23.2
2017-06-09T02:15:32.251Z,23.28
2017-06-09T02:16:00.340Z,23.25
2017-06-09T02:16:28.518Z,23.23
2017-06-09T02:16:56.709Z,23.21
2017-06-09T02:17:24.811Z,23.2
2017-06-09T02:17:52.970Z,23.25
2017-06-09T02:18:21.161Z,23.21
2017-06-09T02:18:49.352Z,23.16
2017-06-09T02:19:17.543Z,23.2
2017-06-09T02:19:45.613Z,23.23
2017-06-09T02:20:13.828Z,23.16
2017-06-09T02:20:41.897Z,23.18
2017-06-09T02:21:10.060Z,23.14
2017-06-09T02:21:38.280Z,23.14
2017-06-09T02:22:06.416Z,23.02
2017-06-09T02:22:34.514Z,23.13
2017-06-09T02:23:02.712Z,23.11
2017-06-09T02:23:30.806Z,23.08
2017-06-09T02:23:58.886Z,23.06
2017-06-09T02:24:27.051Z,23.04
2017-06-09T02:24:55.226Z,23.11
2017-06-09T02:25:23.390Z,23.07
2017-06-09T02:25:51.596Z,23.08
2017-06-09T02:26:19.684Z,23.13
2017-06-09T02:26:47.780Z,23.1
2017-06-09T02:27:15.965Z,23.04
2017-06-09T02:27:44.057Z,23.13
2017-06-09T02:28:12.129Z,23.08
2017-06-09T02:28:40.318Z,23.08
2017-06-09T02:29:08.300Z,23.07
2017-06-09T02:29:36.466Z,23.01
2017-06-09T02:30:04.660Z,23.1
2017-06-09T02:30:32.763Z,23.07
2017-06-09T02:31:00.915Z,23.08
2017-06-09T02:31:29.110Z,23.01
2017-06-09T02:31:57.282Z,23.01
2017-06-09T02:32:25.471Z,23.01
2017-06-09T02:32:53.663Z,23.04
2017-06-09T02:33:21.865Z,23.1
2017-06-09T02:33:50.058Z,23.04
2017-06-09T02:34:18.220Z,23.13
2017-06-09T02:34:46.402Z,23.13
2017-06-09T02:35:14.562Z,23.08
2017-06-09T02:35:42.749Z,23.14
2017-06-09T02:36:10.839Z,23.01
2017-06-09T02:36:38.918Z,23.17
2017-06-09T02:37:07.117Z,23.16
2017-06-09T02:37:35.300Z,23.16
2017-06-09T02:38:03.506Z,23.16
2017-06-09T02:38:31.566Z,23.18
2017-06-09T02:38:59.742Z,23.16
2017-06-09T02:39:27.933Z,23.18
2017-06-09T02:39:56.021Z,23.14
2017-06-09T02:40:24.203Z,23.17
2017-06-09T02:40:53.911Z,23.21
2017-06-09T02:41:21.987Z,23.18
2017-06-09T02:41:50.074Z,23.13
2017-06-09T02:42:18.144Z,23.17
2017-06-09T02:42:46.259Z,23.17
2017-06-09T02:43:14.242Z,23.2
2017-06-09T02:43:42.416Z,23.13
2017-06-09T02:44:10.403Z,23.18
2017-06-09T02:44:38.398Z,23.2
2017-06-09T02:45:06.472Z,23.14
2017-06-09T02:45:34.644Z,23.14
2017-06-09T02:46:02.692Z,23.23
2017-06-09T02:46:30.834Z,23.23
2017-06-09T02:46:59.007Z,23.18
2017-06-09T02:47:27.161Z,23.18
2017-06-09T02:47:55.363Z,23.25
2017-06-09T02:48:23.445Z,23.21
2017-06-09T02:48:51.621Z,23.25
2017-06-09T02:49:19.779Z,23.23
2017-06-09T02:49:47.954Z,23.23
2017-06-09T02:50:16.008Z,23.25
2017-06-09T02:50:43.913Z,23.25
2017-06-09T02:51:12.082Z,23.25
2017-06-09T02:51:40.271Z,23.23
2017-06-09T02:52:08.457Z,23.25
2017-06-09T02:52:36.514Z,23.23
2017-06-09T02:53:04.709Z,23.29
2017-06-09T02:53:32.825Z,23.34
2017-06-09T02:54:01.021Z,23.36
2017-06-09T02:54:29.211Z,23.34
2017-06-09T02:54:57.405Z,23.25
2017-06-09T02:55:25.583Z,23.29
2017-06-09T02:55:53.669Z,23.26
2017-06-09T02:56:21.843Z,23.23
2017-06-09T02:56:50.015Z,23.29
2017-06-09T02:57:18.122Z,23.25
2017-06-09T02:57:46.286Z,23.25
2017-06-09T02:58:14.383Z,23.26
2017-06-09T02:58:42.550Z,23.26
2017-06-09T02:59:10.734Z,23.25
2017-06-09T02:59:38.917Z,23.26
2017-06-09T03:00:07.119Z,23.2
2017-06-09T03:00:35.294Z,23.28
2017-06-09T03:01:03.489Z,23.25
2017-06-09T03:01:31.488Z,23.26
2017-06-09T03:01:59.650Z,23.23
2017-06-09T03:02:27.807Z,23.21
2017-06-09T03:02:55.891Z,23.25
2017-06-09T03:03:24.083Z,23.23
2017-06-09T03:03:52.301Z,23.28
2017-06-09T03:04:20.392Z,23.26
2017-06-09T03:04:48.587Z,23.26
2017-06-09T03:05:16.786Z,23.32
2017-06-09T03:05:44.891Z,23.2
2017-06-09T03:06:13.082Z,23.28
2017-06-09T03:06:41.178Z,23.23
2017-06-09T03:07:09.259Z,23.28
2017-06-09T03:07:37.438Z,23.23
2017-06-09T03:08:05.630Z,23.23
2017-06-09T03:08:33.712Z,23.23
2017-06-09T03:09:01.903Z,23.25
2017-06-09T03:09:30.089Z,23.32
2017-06-09T03:09:58.271Z,23.25
2017-06-09T03:10:26.348Z,23.25
2017-06-09T03:10:54.581Z,23.2
2017-06-09T03:11:22.762Z,23.2
2017-06-09T03:11:50.953Z,23.23
2017-06-09T03:12:19.116Z,23.17
2017-06-09T03:12:47.313Z,23.16
2017-06-09T03:13:15.507Z,23.18
2017-06-09T03:13:43.704Z,23.18
2017-06-09T03:14:11.593Z,23.23
2017-06-09T03:14:39.773Z,23.13
2017-06-09T03:15:07.985Z,23.14
2017-06-09T03:15:36.154Z,23.14
2017-06-09T03:16:04.323Z,23.08
2017-06-09T03:16:32.377Z,23.07
2017-06-09T03:17:00.557Z,23.06
2017-06-09T03:17:28.644Z,23.08
2017-06-09T03:17:56.843Z,23.07
2017-06-09T03:18:25.037Z,23.1
2017-06-09T03:18:53.135Z,22.99
2017-06-09T03:19:21.288Z,23.01
2017-06-09T03:19:49.474Z,23.04
2017-06-09T03:20:17.465Z,23.06
2017-06-09T03:20:45.644Z,23.02
2017-06-09T03:21:13.728Z,23.02
2017-06-09T03:21:41.894Z,22.99
2017-06-09T03:22:10.087Z,23.02
2017-06-09T03:22:38.281Z,22.99
2017-06-09T03:23:06.382Z,23.02
2017-06-09T03:23:34.566Z,23.01
2017-06-09T03:24:02.763Z,22.99
2017-06-09T03:24:30.933Z,23.02
2017-06-09T03:24:59.101Z,23.01
2017-06-09T03:25:27.249Z,23.04
2017-06-09T03:25:55.428Z,23.04
2017-06-09T03:26:23.517Z,23.07
2017-06-09T03:26:51.559Z,23.07
2017-06-09T03:27:19.730Z,23.1
2017-06-09T03:27:47.908Z,23.1
2017-06-09T03:28:16.108Z,23.07
2017-06-09T03:28:44.179Z,23.04
2017-06-09T03:29:12.251Z,23.08
2017-06-09T03:29:40.440Z,23.1
2017-06-09T03:30:08.602Z,23.08
2017-06-09T03:30:36.767Z,23.07
2017-06-09T03:31:04.745Z,23.06
2017-06-09T03:31:32.917Z,23.06
2017-06-09T03:32:01.062Z,23.02
2017-06-09T03:32:29.138Z,23.1
2017-06-09T03:32:57.305Z,22.98
2017-06-09T03:33:25.491Z,23.01
2017-06-09T03:33:53.661Z,23.04
2017-06-09T03:34:21.804Z,23.01
2017-06-09T03:34:49.970Z,23.02
2017-06-09T03:35:18.117Z,22.98
2017-06-09T03:35:46.279Z,22.96
2017-06-09T03:36:14.366Z,22.96
2017-06-09T03:36:42.519Z,22.89
2017-06-09T03:37:10.704Z,22.95
2017-06-09T03:37:38.892Z,22.93
2017-06-09T03:38:07.074Z,22.89
2017-06-09T03:38:35.124Z,22.86
2017-06-09T03:39:03.297Z,22.78
2017-06-09T03:39:31.500Z,22.83
2017-06-09T03:39:59.614Z,22.88
2017-06-09T03:40:27.803Z,22.83
2017-06-09T03:40:55.890Z,22.77
2017-06-09T03:41:23.953Z,22.78
2017-06-09T03:41:52.108Z,22.77
2017-06-09T03:42:20.265Z,22.76
2017-06-09T03:42:48.433Z,22.76
2017-06-09T03:43:16.594Z,22.71
2017-06-09T03:43:44.688Z,22.73
2017-06-09T03:44:12.850Z,22.73
2017-06-09T03:44:40.853Z,22.68
2017-06-09T03:45:08.957Z,22.73
2017-06-09T03:45:37.122Z,22.71
2017-06-09T03:46:05.312Z,22.77
2017-06-09T03:46:33.457Z,22.74
2017-06-09T03:47:01.625Z,22.67
2017-06-09T03:47:29.813Z,22.68
2017-06-09T03:47:57.901Z,22.67
2017-06-09T03:48:26.065Z,22.62
2017-06-09T03:48:53.973Z,22.65
2017-06-09T03:49:22.155Z,22.67
2017-06-09T03:49:50.315Z,22.68
2017-06-09T03:50:18.407Z,22.65
2017-06-09T03:50:46.558Z,22.62
2017-06-09T03:51:14.759Z,22.68
2017-06-09T03:51:42.842Z,22.63
2017-06-09T03:52:11.035Z,22.63
2017-06-09T03:52:39.231Z,22.61
2017-06-09T03:53:07.379Z,22.61
2017-06-09T03:53:35.550Z,22.62
2017-06-09T03:54:03.729Z,22.49
2017-06-09T03:54:31.869Z,22.61
2017-06-09T03:54:59.944Z,22.63
2017-06-09T03:55:28.043Z,22.63
2017-06-09T03:55:56.208Z,22.56
2017-06-09T03:56:24.391Z,22.55
2017-06-09T03:56:52.549Z,22.55
2017-06-09T03:57:20.629Z,22.59
2017-06-09T03:57:48.774Z,22.59
2017-06-09T03:58:16.941Z,22.55
2017-06-09T03:58:45.104Z,22.55
2017-06-09T03:59:13.276Z,22.53
2017-06-09T03:59:41.443Z,22.56
2017-06-09T04:00:09.526Z,22.56
2017-06-09T04:00:37.542Z,22.58
2017-06-09T04:01:05.706Z,22.49
2017-06-09T04:01:33.770Z,22.55
2017-06-09T04:02:01.915Z,22.53
2017-06-09T04:02:30.104Z,22.56
2017-06-09T04:02:58.181Z,22.52
2017-06-09T04:03:26.059Z,22.55
2017-06-09T04:03:54.162Z,22.49
2017-06-09T04:04:22.314Z,22.51
2017-06-09T04:04:50.361Z,22.47
2017-06-09T04:05:18.525Z,22.52
2017-06-09T04:05:46.697Z,22.52
2017-06-09T04:06:14.858Z,22.47
2017-06-09T04:06:43.048Z,22.49
2017-06-09T04:07:11.134Z,22.49
2017-06-09T04:07:39.329Z,22.37
2017-06-09T04:08:07.491Z,22.37
2017-06-09T04:08:35.576Z,22.46
2017-06-09T04:09:03.659Z,22.46
2017-06-09T04:09:31.817Z,22.41
2017-06-09T04:09:59.917Z,22.36
2017-06-09T04:10:28.002Z,22.31
2017-06-09T04:10:56.090Z,22.25
2017-06-09T04:11:24.182Z,22.3
2017-06-09T04:11:52.349Z,22.3
2017-06-09T04:12:20.510Z,22.36
2017-06-09T04:12:48.686Z,22.3
2017-06-09T04:13:16.763Z,22.26
2017-06-09T04:13:44.953Z,22.21
2017-06-09T04:14:13.132Z,22.18
2017-06-09T04:14:41.205Z,22.19
2017-06-09T04:15:09.359Z,22.19
2017-06-09T04:15:37.546Z,22.21
2017-06-09T04:16:05.708Z,22.16
2017-06-09T04:16:33.799Z,22.08
2017-06-09T04:17:01.961Z,22.1
2017-06-09T04:17:30.115Z,22.18
2017-06-09T04:17:58.185Z,22.04
2017-06-09T04:18:26.357Z,22.06
2017-06-09T04:18:54.451Z,21.96
2017-06-09T04:19:22.627Z,22.01
2017-06-09T04:19:50.710Z,22.01
2017-06-09T04:20:18.891Z,21.99
2017-06-09T04:20:47.066Z,21.99
2017-06-09T04:21:15.233Z,22.01
2017-06-09T04:21:43.180Z,21.96
2017-06-09T04:22:11.326Z,21.96
2017-06-09T04:22:39.418Z,21.99
2017-06-09T04:23:07.589Z,21.96
2017-06-09T04:23:35.703Z,21.94
2017-06-09T04:24:03.888Z,21.89
2017-06-09T04:24:32.059Z,21.85
2017-06-09T04:25:00.233Z,21.88
2017-06-09T04:25:28.281Z,21.84
2017-06-09T04:25:56.384Z,21.77
2017-06-09T04:26:24.569Z,21.8
2017-06-09T04:26:52.747Z,21.8
2017-06-09T04:27:20.916Z,21.8
2017-06-09T04:27:49.055Z,21.77
2017-06-09T04:28:17.200Z,21.81
2017-06-09T04:28:45.392Z,21.8
2017-06-09T04:29:13.359Z,21.7
2017-06-09T04:29:41.518Z,21.69
2017-06-09T04:30:09.687Z,21.63
2017-06-09T04:30:37.856Z,21.66
2017-06-09T04:31:06.007Z,21.65
2017-06-09T04:31:33.993Z,21.68
2017-06-09T04:32:02.150Z,21.65
2017-06-09T04:32:30.335Z,21.53
2017-06-09T04:32:58.412Z,21.6
2017-06-09T04:33:26.603Z,21.66
2017-06-09T04:33:54.682Z,21.56
2017-06-09T04:34:22.647Z,21.54
2017-06-09T04:34:50.719Z,21.51
2017-06-09T04:35:18.899Z,21.5
2017-06-09T04:35:46.892Z,21.56
2017-06-09T04:36:15.058Z,21.54
2017-06-09T04:36:43.145Z,21.54
2017-06-09T04:37:11.154Z,21.51
2017-06-09T04:37:39.240Z,21.56
2017-06-09T04:38:07.421Z,21.56
2017-06-09T04:38:35.508Z,21.51
2017-06-09T04:39:03.564Z,21.51
2017-06-09T04:39:31.749Z,21.53
2017-06-09T04:39:59.913Z,21.62
2017-06-09T04:40:28.066Z,21.66
2017-06-09T04:40:56.147Z,21.65
2017-06-09T04:41:24.323Z,21.62
2017-06-09T04:41:52.485Z,21.66
2017-06-09T04:42:20.580Z,21.72
2017-06-09T04:42:48.648Z,21.69
2017-06-09T04:43:16.808Z,21.68
2017-06-09T04:43:44.996Z,21.63
2017-06-09T04:44:13.149Z,21.65
2017-06-09T04:44:41.221Z,21.74
2017-06-09T04:45:09.367Z,21.72
2017-06-09T04:45:37.338Z,21.63
2017-06-09T04:46:05.325Z,21.7
2017-06-09T04:46:33.315Z,21.69
2017-06-09T04:47:01.464Z,21.72
2017-06-09T04:47:29.555Z,21.68
2017-06-09T04:47:57.652Z,21.65
2017-06-09T04:48:25.652Z,21.69
2017-06-09T04:48:53.792Z,21.66
2017-06-09T04:49:21.876Z,21.66
2017-06-09T04:49:50.060Z,21.66
2017-06-09T04:50:18.142Z,21.65
2017-06-09T04:50:46.132Z,21.66
2017-06-09T04:51:14.292Z,21.59
2017-06-09T04:51:42.486Z,21.56
2017-06-09T04:52:10.683Z,21.63
2017-06-09T04:52:38.716Z,21.53
2017-06-09T04:53:06.861Z,21.56
2017-06-09T04:53:34.981Z,21.54
2017-06-09T04:54:03.150Z,21.53
2017-06-09T04:54:31.295Z,21.51
2017-06-09T04:54:59.378Z,21.56
2017-06-09T04:55:27.376Z,21.56
2017-06-09T04:55:55.555Z,21.53
2017-06-09T04:56:23.739Z,21.47
2017-06-09T04:56:51.915Z,21.47
2017-06-09T04:57:20.084Z,21.5
2017-06-09T04:57:48.261Z,21.41
2017-06-09T04:58:16.241Z,21.43
2017-06-09T04:58:44.405Z,21.45
2017-06-09T04:59:12.580Z,21.43
2017-06-09T04:59:40.655Z,21.41
2017-06-09T05:00:08.709Z,21.43
2017-06-09T05:00:36.775Z,21.4
2017-06-09T05:01:04.832Z,21.35
2017-06-09T05:01:32.995Z,21.35
2017-06-09T05:02:01.172Z,21.3
2017-06-09T05:02:29.242Z,21.32
2017-06-09T05:02:57.419Z,21.32
2017-06-09T05:03:25.595Z,21.3
2017-06-09T05:03:53.754Z,21.33
2017-06-09T05:04:21.847Z,21.29
2017-06-09T05:04:49.807Z,21.32
2017-06-09T05:05:17.895Z,21.29
2017-06-09T05:05:46.062Z,21.29
2017-06-09T05:06:14.127Z,21.26
2017-06-09T05:06:42.198Z,21.28
2017-06-09T05:07:10.355Z,21.17
2017-06-09T05:07:38.422Z,21.26
2017-06-09T05:08:06.588Z,21.26
2017-06-09T05:08:34.674Z,21.29
2017-06-09T05:09:02.636Z,21.25
2017-06-09T05:09:30.791Z,21.2
2017-06-09T05:09:58.876Z,21.23
2017-06-09T05:10:27.037Z,21.23
2017-06-09T05:10:55.214Z,21.2
2017-06-09T05:11:23.276Z,21.19
2017-06-09T05:11:51.445Z,21.22
2017-06-09T05:12:19.626Z,21.2
2017-06-09T05:12:47.685Z,21.26
2017-06-09T05:13:15.837Z,21.23
2017-06-09T05:13:43.999Z,21.26
2017-06-09T05:14:12.149Z,21.22
2017-06-09T05:14:40.236Z,21.23
2017-06-09T05:15:08.313Z,21.32
2017-06-09T05:15:36.482Z,21.23
2017-06-09T05:16:04.576Z,21.3
2017-06-09T05:16:32.629Z,21.26
2017-06-09T05:17:00.782Z,21.22
2017-06-09T05:17:28.980Z,21.26
2017-06-09T05:17:57.116Z,21.26
2017-06-09T05:18:25.261Z,21.22
2017-06-09T05:18:53.442Z,21.28
2017-06-09T05:19:21.630Z,21.28
2017-06-09T05:19:49.816Z,21.23
2017-06-09T05:20:18.011Z,21.28
2017-06-09T05:20:46.170Z,21.26
2017-06-09T05:21:14.343Z,21.32
2017-06-09T05:21:42.526Z,21.26
2017-06-09T05:22:10.606Z,21.23
2017-06-09T05:22:38.813Z,21.26
2017-06-09T05:23:06.993Z,21.22
2017-06-09T05:23:35.061Z,21.19
2017-06-09T05:24:03.253Z,21.13
2017-06-09T05:24:31.442Z,21.25
2017-06-09T05:24:59.444Z,21.14
2017-06-09T05:25:27.628Z,21.3
2017-06-09T05:25:55.782Z,21.15
2017-06-09T05:26:23.846Z,21.2
2017-06-09T05:26:52.033Z,21.13
2017-06-09T05:27:20.201Z,21.14
2017-06-09T05:27:48.297Z,21.15
2017-06-09T05:28:16.437Z,21.2
2017-06-09T05:28:44.625Z,21.11
2017-06-09T05:29:12.774Z,21.15
2017-06-09T05:29:40.947Z,21.11
2017-06-09T05:30:08.930Z,21.19
2017-06-09T05:30:37.018Z,21.14
2017-06-09T05:31:05.076Z,21.19
2017-06-09T05:31:33.226Z,21.1
2017-06-09T05:32:01.393Z,21.11
2017-06-09T05:32:29.465Z,21.17
2017-06-09T05:32:57.530Z,21.19
2017-06-09T05:33:25.607Z,21.11
2017-06-09T05:33:53.704Z,21.05
2017-06-09T05:34:21.913Z,21.13
2017-06-09T05:34:50.074Z,21.03
2017-06-09T05:35:18.236Z,21.07
2017-06-09T05:35:46.402Z,21.17
2017-06-09T05:36:14.363Z,21.15
2017-06-09T05:36:42.547Z,21.14
2017-06-09T05:37:10.519Z,21.22
2017-06-09T05:37:38.662Z,21.1
2017-06-09T05:38:06.743Z,21.17
2017-06-09T05:38:34.910Z,21.11
2017-06-09T05:39:03.394Z,21.14
2017-06-09T05:39:32.049Z,21.17
2017-06-09T05:40:00.654Z,21.13
2017-06-09T05:40:29.248Z,21.1
2017-06-09T05:40:57.860Z,21.15
2017-06-09T05:41:26.466Z,21.2
2017-06-09T05:41:54.986Z,21.1
2017-06-09T05:42:23.571Z,21.1
2017-06-09T05:42:52.062Z,21.08
2017-06-09T05:43:20.652Z,21.11
2017-06-09T05:43:49.190Z,21.03
2017-06-09T05:44:17.817Z,21.05
2017-06-09T05:44:46.321Z,21
2017-06-09T05:45:14.949Z,21.01
2017-06-09T05:45:43.557Z,20.98
2017-06-09T05:46:12.050Z,20.93
2017-06-09T05:46:40.659Z,20.95
2017-06-09T05:47:09.168Z,20.86
2017-06-09T05:47:37.673Z,20.83
2017-06-09T05:48:06.085Z,20.86
2017-06-09T05:48:34.570Z,20.95
2017-06-09T05:49:03.162Z,20.85
2017-06-09T05:49:31.774Z,20.85
2017-06-09T05:50:00.359Z,20.8
2017-06-09T05:50:28.845Z,20.77
2017-06-09T05:50:57.446Z,20.74
2017-06-09T05:51:26.024Z,20.8
2017-06-09T05:51:54.616Z,20.78
2017-06-09T05:52:23.218Z,20.77
2017-06-09T05:52:51.735Z,20.83
2017-06-09T05:53:20.139Z,20.74
2017-06-09T05:53:48.775Z,20.74
2017-06-09T05:54:17.282Z,20.77
2017-06-09T05:54:45.776Z,20.77
2017-06-09T05:55:14.400Z,20.78
2017-06-09T05:55:43.037Z,20.78
2017-06-09T05:56:11.655Z,20.7
2017-06-09T05:56:40.275Z,20.75
2017-06-09T05:57:08.877Z,20.75
2017-06-09T05:57:37.459Z,20.71
2017-06-09T05:58:06.042Z,20.74
2017-06-09T05:58:34.635Z,20.7
2017-06-09T05:59:03.238Z,20.71
2017-06-09T05:59:31.837Z,20.71
2017-06-09T06:00:00.330Z,20.74
2017-06-09T06:00:28.906Z,20.75
2017-06-09T06:00:57.515Z,20.71
2017-06-09T06:01:26.005Z,20.75
2017-06-09T06:01:54.622Z,20.75
2017-06-09T06:02:23.224Z,20.75
2017-06-09T06:02:51.723Z,20.73
2017-06-09T06:03:20.298Z,20.7
2017-06-09T06:03:48.910Z,20.74
2017-06-09T06:04:17.540Z,20.77